Time;durP1;ratioP1;P1;durP2;ratioP2;P2;SDS_P1;SDS_P2;PMS_P1;PMS_P2;Temp;Humidity;BMP_temperature;BMP_pressure;BME280_temperature;BME280_humidity;BME280_pressure;Samples;Min_cycle;Max_cycle;Signal;HPM_P1;HPM_P2
2021/12/20 00:00:58;;;;;;;5.20;3.30;;;;;;;0.19;89.46;97737.72;106189;1322;23237;-59
2021/12/20 00:03:26;;;;;;;7.40;2.90;;;;;;;0.19;89.25;97741.42;106122;1320;22420;-59
2021/12/20 00:06:03;;;;;;;7.80;4.00;;;;;;;0.19;89.19;97745.55;106091;1317;137488;-59
2021/12/20 00:08:32;;;;;;;4.30;2.50;;;;;;;0.19;89.13;97750.04;105853;1319;22466;-59
2021/12/20 00:10:59;;;;;;;6.30;2.70;;;;;;;0.19;89.40;97754.11;106066;1319;138130;-59
2021/12/20 00:13:28;;;;;;;3.50;2.20;;;;;;;0.20;89.19;97756.65;106153;1319;22919;-59
2021/12/20 00:15:55;;;;;;;4.60;2.50;;;;;;;0.20;89.18;97755.70;106056;1319;142187;-59
2021/12/20 00:18:43;;;;;;;4.20;2.40;;;;;;;0.21;89.21;97754.48;106150;1325;22535;-59
2021/12/20 00:21:12;;;;;;;4.10;2.50;;;;;;;0.23;89.15;97761.01;106175;1319;22295;-59
2021/12/20 00:23:40;;;;;;;4.10;2.30;;;;;;;0.24;89.07;97759.17;106058;1319;138302;-59
2021/12/20 00:26:09;;;;;;;5.00;2.60;;;;;;;0.25;89.43;97758.66;106160;1319;23389;-59
2021/12/20 00:28:37;;;;;;;8.30;4.00;;;;;;;0.28;89.41;97760.80;106096;1319;138787;-60
2021/12/20 00:31:06;;;;;;;6.90;3.00;;;;;;;0.27;89.02;97761.17;106215;1319;23520;-59
2021/12/20 00:33:36;;;;;;;5.10;2.30;;;;;;;0.27;88.98;97762.13;106174;1324;22266;-59
2021/12/20 00:36:06;;;;;;;4.60;2.60;;;;;;;0.27;89.01;97767.54;106090;1320;138477;-59
2021/12/20 00:41:22;;;;;;;6.40;2.50;;;;;;;0.25;88.88;97768.72;106042;1320;139141;-56
2021/12/20 00:43:50;;;;;;;7.80;4.00;;;;;;;0.23;88.93;97774.35;106189;1319;23141;-56
2021/12/20 00:46:18;;;;;;;2.20;1.40;;;;;;;0.20;88.89;97779.42;106041;1319;137773;-56
2021/12/20 00:48:46;;;;;;;1.80;1.30;;;;;;;0.13;89.37;97777.59;106164;1319;23742;-56
2021/12/20 00:51:14;;;;;;;2.00;1.10;;;;;;;0.04;89.80;97777.33;106190;1320;22409;-57
2021/12/20 00:53:42;;;;;;;1.80;1.20;;;;;;;-0.04;90.28;97776.26;106115;1325;137537;-58
2021/12/20 00:56:10;;;;;;;6.30;2.50;;;;;;;-0.13;90.32;97782.78;106127;1324;22488;-58
2021/12/20 00:58:37;;;;;;;2.60;1.50;;;;;;;-0.19;90.65;97783.39;106066;1319;138055;-57
2021/12/20 01:01:06;;;;;;;2.90;2.00;;;;;;;-0.22;90.87;97786.16;106123;1319;22545;-58
2021/12/20 01:03:34;;;;;;;3.30;2.20;;;;;;;-0.26;90.92;97785.67;106215;1324;23375;-57
2021/12/20 01:06:03;;;;;;;5.20;2.50;;;;;;;-0.30;91.35;97784.15;106054;1319;140004;-57
2021/12/20 01:08:35;;;;;;;3.50;2.50;;;;;;;-0.33;91.63;97779.43;106158;1319;23366;-57
2021/12/20 01:11:04;;;;;;;5.40;2.80;;;;;;;-0.32;92.01;97775.86;106094;1319;138984;-57
2021/12/20 01:13:39;;;;;;;3.60;2.40;;;;;;;-0.29;92.11;97781.55;106130;1319;22412;-56
2021/12/20 01:16:07;;;;;;;6.40;2.70;;;;;;;-0.28;92.05;97783.08;106112;1319;138850;-58
2021/12/20 01:18:35;;;;;;;6.00;1.80;;;;;;;-0.25;92.37;97783.23;106174;1319;23021;-59
2021/12/20 01:21:03;;;;;;;4.40;1.80;;;;;;;-0.23;92.36;97782.87;105175;1324;22541;-59
2021/12/20 01:23:31;;;;;;;3.10;1.80;;;;;;;-0.19;92.09;97787.96;105946;1319;137914;-59
2021/12/20 01:26:10;;;;;;;3.70;2.10;;;;;;;-0.15;92.04;97786.45;106214;1319;22438;-60
2021/12/20 01:28:42;;;;;;;4.30;2.10;;;;;;;-0.12;91.96;97787.04;105538;1320;138543;-60
2021/12/20 01:31:11;;;;;;;3.80;2.10;;;;;;;-0.09;91.87;97788.61;106165;1319;22513;-59
2021/12/20 01:33:39;;;;;;;2.90;2.30;;;;;;;-0.08;91.58;97791.70;106150;1319;22335;-60
2021/12/20 01:36:07;;;;;;;4.40;2.30;;;;;;;-0.07;91.35;97796.96;106053;1319;137615;-59
2021/12/20 01:38:35;;;;;;;3.20;2.00;;;;;;;-0.06;91.34;97794.69;106192;1319;22499;-60
2021/12/20 01:41:03;;;;;;;4.50;2.60;;;;;;;-0.06;90.76;97789.02;106092;1324;139627;-59
2021/12/20 01:43:31;;;;;;;3.70;1.80;;;;;;;-0.07;90.58;97784.86;106153;1320;22595;-59
2021/12/20 01:46:00;;;;;;;2.60;1.80;;;;;;;-0.05;90.88;97786.73;104630;1319;139023;-59
2021/12/20 01:48:29;;;;;;;3.00;2.00;;;;;;;-0.03;90.46;97782.70;106113;1319;22513;-59
2021/12/20 01:53:28;;;;;;;6.00;2.60;;;;;;;-0.02;90.14;97782.36;106042;1319;139234;-60
2021/12/20 01:55:57;;;;;;;4.10;2.30;;;;;;;-0.00;90.18;97784.48;106135;1319;22637;-59
2021/12/20 01:58:26;;;;;;;5.40;2.60;;;;;;;0.01;90.05;97780.48;106040;1319;139046;-59
2021/12/20 02:03:40;;;;;;;7.00;2.70;;;;;;;0.03;90.00;97781.23;106124;1319;22484;-59
2021/12/20 02:06:16;;;;;;;4.20;2.70;;;;;;;0.03;89.79;97779.98;105933;1325;138387;-59
2021/12/20 02:08:46;;;;;;;4.60;2.80;;;;;;;0.04;89.93;97779.31;106210;1319;22515;-59
2021/12/20 02:11:14;;;;;;;4.20;2.60;;;;;;;0.05;89.62;97785.73;105987;1319;137764;-59
2021/12/20 02:13:42;;;;;;;4.10;2.60;;;;;;;0.03;89.61;97783.69;106203;1319;22605;-59
2021/12/20 02:16:09;;;;;;;4.30;2.70;;;;;;;0.04;89.72;97786.11;106065;1319;138232;-60
2021/12/20 02:18:38;;;;;;;4.80;2.90;;;;;;;0.02;89.55;97782.76;106140;1319;22515;-60
2021/12/20 02:21:06;;;;;;;5.60;2.80;;;;;;;0.03;89.45;97783.58;103831;1320;24318;-60
2021/12/20 02:23:34;;;;;;;5.60;2.60;;;;;;;0.06;89.58;97785.30;105973;1319;138256;-61
2021/12/20 02:26:04;;;;;;;4.80;2.20;;;;;;;0.06;89.64;97787.61;106152;1323;22647;-61
2021/12/20 02:28:38;;;;;;;6.00;2.50;;;;;;;0.06;89.39;97794.03;106000;1319;137797;-60
2021/12/20 02:36:55;;;;;;;3.80;2.10;;;;;;;0.04;89.05;97794.63;106140;1319;22444;-59
2021/12/20 02:39:23;;;;;;;3.80;2.60;;;;;;;0.04;89.15;97793.89;106203;1319;22553;-59
2021/12/20 02:42:13;;;;;;;9.60;4.40;;;;;;;0.04;89.20;97797.36;106066;1319;137551;-59
2021/12/20 02:44:50;;;;;;;10.20;4.20;;;;;;;0.03;89.12;97797.86;106158;1324;22555;-59
2021/12/20 02:47:28;;;;;;;5.60;3.30;;;;;;;0.03;89.15;97797.13;106108;1319;138271;-59
2021/12/20 02:49:57;;;;;;;5.60;3.60;;;;;;;0.03;89.14;97799.92;106104;1319;22497;-59
2021/12/20 02:52:25;;;;;;;6.10;3.20;;;;;;;0.04;88.94;97805.44;104858;1319;138406;-58
2021/12/20 02:54:53;;;;;;;4.00;2.60;;;;;;;0.02;89.14;97802.61;102199;1319;24372;-61
2021/12/20 02:57:21;;;;;;;3.80;2.00;;;;;;;0.03;89.02;97806.60;101965;1319;22993;-58
2021/12/20 02:59:49;;;;;;;4.30;2.20;;;;;;;0.02;89.14;97804.96;101962;1324;137863;-59
2021/12/20 03:02:18;;;;;;;10.40;4.70;;;;;;;0.00;88.93;97804.41;101696;1319;25393;-59
2021/12/20 03:04:46;;;;;;;10.10;4.30;;;;;;;-0.00;88.77;97804.19;102125;1319;137950;-59
2021/12/20 03:07:20;;;;;;;7.20;3.10;;;;;;;-0.03;88.83;97809.26;102009;1319;22797;-59
2021/12/20 03:09:54;;;;;;;3.80;2.70;;;;;;;-0.04;88.77;97810.80;102217;1320;24452;-59
2021/12/20 03:12:26;;;;;;;3.20;1.90;;;;;;;-0.06;88.50;97807.79;105979;1324;137806;-59
2021/12/20 03:15:00;;;;;;;4.00;1.90;;;;;;;-0.10;88.57;97812.04;106203;1319;22542;-60
2021/12/20 03:17:30;;;;;;;5.70;1.90;;;;;;;-0.12;88.35;97814.34;102012;1319;139866;-58
2021/12/20 03:19:58;;;;;;;7.00;4.00;;;;;;;-0.13;88.41;97807.48;102167;1319;22566;-58
2021/12/20 03:22:26;;;;;;;3.20;2.00;;;;;;;-0.12;88.41;97811.66;102201;1323;139674;-58
2021/12/20 03:24:54;;;;;;;4.40;3.30;;;;;;;-0.14;88.33;97806.38;102140;1324;25377;-58
2021/12/20 03:27:22;;;;;;;3.10;2.00;;;;;;;-0.13;88.62;97807.61;102051;1319;25447;-59
2021/12/20 03:29:50;;;;;;;2.90;1.50;;;;;;;-0.12;88.77;97809.35;105927;1319;137740;-59
2021/12/20 03:32:18;;;;;;;3.20;2.00;;;;;;;-0.12;88.30;97807.49;106042;1319;22503;-59
2021/12/20 03:34:46;;;;;;;3.60;1.90;;;;;;;-0.11;88.35;97806.34;106079;1320;139273;-59
2021/12/20 03:37:14;;;;;;;4.10;2.90;;;;;;;-0.09;88.30;97809.65;106128;1319;22270;-59
2021/12/20 03:41:58;;;;;;;3.60;1.70;;;;;;;-0.07;88.10;97814.92;99681;1348;546626;-57
2021/12/20 03:44:26;;;;;;;4.30;2.60;;;;;;;-0.10;88.21;97809.25;105252;1331;22601;-59
2021/12/20 03:46:54;;;;;;;3.30;2.40;;;;;;;-0.09;88.08;97813.02;105254;1326;138404;-58
2021/12/20 03:49:22;;;;;;;3.50;2.60;;;;;;;-0.09;87.85;97816.02;105180;1327;22490;-59
2021/12/20 03:51:50;;;;;;;5.80;2.70;;;;;;;-0.11;87.86;97813.30;105154;1328;23520;-59
2021/12/20 03:54:17;;;;;;;7.20;3.50;;;;;;;-0.11;88.06;97811.43;105093;1327;137837;-59
2021/12/20 03:56:46;;;;;;;5.90;3.50;;;;;;;-0.11;88.03;97814.33;105270;1322;166415;-58
2021/12/20 03:59:15;;;;;;;5.00;2.70;;;;;;;-0.12;88.14;97817.02;105307;1324;137427;-58
2021/12/20 04:01:43;;;;;;;10.30;3.40;;;;;;;-0.13;88.16;97818.10;105483;1325;22598;-58
2021/12/20 04:04:11;;;;;;;8.00;5.10;;;;;;;-0.14;88.25;97821.51;105293;1325;22435;-58
2021/12/20 04:06:41;;;;;;;6.90;4.50;;;;;;;-0.16;88.30;97822.13;105039;1327;138958;-57
2021/12/20 04:09:08;;;;;;;7.70;3.60;;;;;;;-0.16;88.33;97822.34;105711;1324;23258;-57
2021/12/20 04:11:38;;;;;;;5.00;3.10;;;;;;;-0.16;88.55;97825.02;105626;1323;138452;-57
2021/12/20 04:14:06;;;;;;;3.60;2.00;;;;;;;-0.17;88.53;97830.55;105796;1324;22316;-58
2021/12/20 04:16:36;;;;;;;6.30;2.50;;;;;;;-0.19;88.84;97828.69;105619;1324;138201;-58
2021/12/20 04:19:04;;;;;;;4.70;2.40;;;;;;;-0.20;88.71;97834.08;105803;1321;22432;-58
2021/12/20 04:21:32;;;;;;;3.70;2.40;;;;;;;-0.21;89.00;97834.84;105853;1325;22632;-60
2021/12/20 04:24:00;;;;;;;5.60;2.80;;;;;;;-0.22;89.12;97840.59;105827;1321;138563;-60
2021/12/20 04:26:28;;;;;;;4.60;2.60;;;;;;;-0.23;88.92;97844.42;105476;1322;23122;-59
2021/12/20 04:28:56;;;;;;;6.00;3.30;;;;;;;-0.23;88.97;97848.05;105676;1321;138373;-60
2021/12/20 04:31:24;;;;;;;5.90;3.30;;;;;;;-0.24;89.21;97851.19;105765;1321;22365;-60
2021/12/20 04:33:52;;;;;;;7.50;3.80;;;;;;;-0.24;89.11;97853.38;105764;1321;22544;-60
2021/12/20 04:36:20;;;;;;;7.20;4.00;;;;;;;-0.26;89.53;97852.95;105672;1322;138678;-60
2021/12/20 04:38:48;;;;;;;9.10;3.60;;;;;;;-0.28;89.16;97849.27;105733;1322;22491;-60
2021/12/20 04:41:16;;;;;;;6.10;3.40;;;;;;;-0.28;89.23;97855.90;105655;1321;138571;-60
2021/12/20 04:43:43;;;;;;;4.70;2.40;;;;;;;-0.29;89.41;97859.48;105631;1324;23411;-60
2021/12/20 04:46:11;;;;;;;8.00;4.10;;;;;;;-0.30;89.62;97859.66;105659;1324;22473;-60
2021/12/20 04:48:39;;;;;;;8.60;4.50;;;;;;;-0.30;89.39;97863.65;105657;1325;137292;-60
2021/12/20 04:51:14;;;;;;;6.40;4.00;;;;;;;-0.29;89.72;97860.60;105761;1321;22622;-60
2021/12/20 04:53:41;;;;;;;5.00;2.70;;;;;;;-0.28;89.70;97864.05;105024;1322;138157;-60
2021/12/20 04:56:09;;;;;;;3.90;2.20;;;;;;;-0.28;89.75;97866.45;104058;1322;24335;-59
2021/12/20 04:58:38;;;;;;;3.80;2.30;;;;;;;-0.31;89.81;97864.20;105451;1323;138561;-59
2021/12/20 05:01:06;;;;;;;3.00;2.10;;;;;;;-0.33;89.70;97866.24;105618;1328;22432;-60
2021/12/20 05:03:34;;;;;;;3.80;2.10;;;;;;;-0.33;90.03;97869.33;105618;1325;22433;-60
2021/12/20 05:06:02;;;;;;;4.50;2.50;;;;;;;-0.34;90.00;97873.47;105488;1324;139029;-60
2021/12/20 05:08:46;;;;;;;5.70;2.40;;;;;;;-0.36;90.08;97879.48;105430;1329;22533;-60
2021/12/20 05:11:15;;;;;;;3.00;2.40;;;;;;;-0.37;89.85;97879.45;105540;1329;138608;-60
2021/12/20 05:13:43;;;;;;;4.70;2.50;;;;;;;-0.39;90.12;97878.87;105606;1324;23453;-60
2021/12/20 05:16:11;;;;;;;4.10;2.30;;;;;;;-0.38;89.95;97884.08;105670;1324;23220;-60
2021/12/20 05:18:39;;;;;;;4.50;2.50;;;;;;;-0.39;89.97;97882.36;105485;1325;137553;-60
2021/12/20 05:21:07;;;;;;;3.80;2.40;;;;;;;-0.39;89.76;97886.52;105610;1329;22419;-60
2021/12/20 05:23:35;;;;;;;3.70;1.70;;;;;;;-0.39;89.73;97882.70;105533;1327;138585;-59
2021/12/20 05:26:04;;;;;;;3.60;1.90;;;;;;;-0.39;89.50;97885.59;104094;1324;23960;-57
2021/12/20 05:28:32;;;;;;;4.70;2.00;;;;;;;-0.40;89.76;97883.48;101720;1318;138105;-58
2021/12/20 05:31:00;;;;;;;3.20;1.60;;;;;;;-0.38;89.72;97882.89;101913;1321;22569;-58
2021/12/20 05:33:29;;;;;;;3.50;1.90;;;;;;;-0.38;89.45;97885.48;101784;1323;25393;-59
2021/12/20 05:35:57;;;;;;;3.40;2.20;;;;;;;-0.38;89.44;97888.04;101724;1321;137445;-59
2021/12/20 05:38:45;;;;;;;3.30;1.80;;;;;;;-0.40;89.05;97893.33;101835;1326;25529;-59
2021/12/20 05:41:13;;;;;;;2.10;1.70;;;;;;;-0.40;89.13;97893.54;105405;1321;139072;-58
2021/12/20 05:43:40;;;;;;;3.40;2.00;;;;;;;-0.39;89.46;97895.50;106168;1324;22552;-58
2021/12/20 05:46:12;;;;;;;3.10;2.20;;;;;;;-0.37;89.32;97894.66;106186;1319;22452;-58
2021/12/20 05:48:39;;;;;;;4.20;1.90;;;;;;;-0.35;89.37;97902.24;105680;1319;137312;-58
2021/12/20 05:51:08;;;;;;;3.80;2.40;;;;;;;-0.34;89.13;97905.11;106084;1319;22652;-58
2021/12/20 05:53:36;;;;;;;3.70;2.50;;;;;;;-0.34;89.06;97909.60;105981;1321;138377;-58
2021/12/20 05:56:04;;;;;;;4.40;2.40;;;;;;;-0.33;89.15;97905.92;106045;1323;22888;-58
2021/12/20 05:58:32;;;;;;;5.60;3.20;;;;;;;-0.33;89.19;97909.38;105958;1321;138334;-59
2021/12/20 06:01:00;;;;;;;5.40;3.00;;;;;;;-0.31;88.86;97915.24;106058;1321;22487;-59
2021/12/20 06:03:28;;;;;;;3.90;2.80;;;;;;;-0.33;88.69;97911.56;105889;1324;22420;-59
2021/12/20 06:05:56;;;;;;;5.80;3.50;;;;;;;-0.32;88.43;97915.88;105989;1324;137793;-59
2021/12/20 06:08:24;;;;;;;9.40;4.40;;;;;;;-0.30;88.71;97917.67;105946;1319;22390;-59
2021/12/20 06:10:53;;;;;;;7.50;4.30;;;;;;;-0.30;88.74;97917.95;105900;1321;140151;-59
2021/12/20 06:13:21;;;;;;;4.60;2.50;;;;;;;-0.29;88.92;97919.05;106173;1319;22560;-59
2021/12/20 06:15:49;;;;;;;3.20;2.20;;;;;;;-0.26;88.82;97917.55;106184;1319;22567;-59
2021/12/20 06:18:17;;;;;;;4.20;2.50;;;;;;;-0.25;88.49;97921.48;105934;1323;139777;-59
2021/12/20 06:20:45;;;;;;;4.70;2.80;;;;;;;-0.26;88.72;97924.25;106059;1321;23154;-59
2021/12/20 06:23:13;;;;;;;10.00;4.40;;;;;;;-0.25;88.57;97925.07;105969;1321;139721;-59
2021/12/20 06:25:41;;;;;;;7.90;4.30;;;;;;;-0.24;88.68;97934.15;106149;1324;22254;-58
2021/12/20 06:28:09;;;;;;;8.70;4.40;;;;;;;-0.23;88.89;97935.29;106168;1319;23291;-59
2021/12/20 06:30:37;;;;;;;5.70;2.90;;;;;;;-0.22;88.68;97934.95;105951;1321;138415;-59
2021/12/20 06:33:05;;;;;;;24.90;10.80;;;;;;;-0.23;88.59;97937.06;106240;1319;22482;-59
2021/12/20 06:35:34;;;;;;;23.80;10.10;;;;;;;-0.23;88.80;97937.14;105489;1323;138505;-59
2021/12/20 06:38:04;;;;;;;14.60;6.50;;;;;;;-0.21;88.59;97938.73;106053;1321;22538;-59
2021/12/20 06:40:32;;;;;;;23.20;10.00;;;;;;;-0.21;88.62;97943.34;105949;1321;138547;-59
2021/12/20 06:43:02;;;;;;;19.40;8.10;;;;;;;-0.22;88.73;97945.13;106041;1321;22511;-58
2021/12/20 06:45:30;;;;;;;12.70;4.70;;;;;;;-0.22;88.52;97950.91;106046;1321;22565;-59
2021/12/20 06:47:59;;;;;;;7.10;3.30;;;;;;;-0.21;88.47;97954.20;105635;1318;138113;-59
2021/12/20 06:50:27;;;;;;;35.00;11.60;;;;;;;-0.21;88.53;97954.69;106040;1322;22431;-59
2021/12/20 06:52:55;;;;;;;58.60;17.20;;;;;;;-0.18;88.53;97952.03;105096;1326;139042;-59
2021/12/20 06:55:23;;;;;;;31.50;12.10;;;;;;;-0.16;88.51;97952.26;106178;1318;22411;-59
2021/12/20 06:57:51;;;;;;;20.00;8.00;;;;;;;-0.15;88.60;97957.95;106137;1318;22488;-59
2021/12/20 07:00:19;;;;;;;13.40;7.70;;;;;;;-0.15;88.51;97960.38;105476;1323;138905;-59
2021/12/20 07:02:49;;;;;;;19.60;9.70;;;;;;;-0.13;88.51;97967.62;106133;1318;22607;-58
2021/12/20 07:05:22;;;;;;;16.50;8.70;;;;;;;-0.13;88.67;97967.00;106023;1320;138113;-59
2021/12/20 07:07:49;;;;;;;24.20;11.90;;;;;;;-0.13;88.51;97959.59;106167;1318;23178;-58
2021/12/20 07:10:17;;;;;;;26.10;13.00;;;;;;;-0.12;88.16;97963.73;106119;1322;22486;-58
2021/12/20 07:12:46;;;;;;;22.60;11.90;;;;;;;-0.10;88.66;97964.87;105991;1319;138094;-58
2021/12/20 07:15:15;;;;;;;9.20;5.30;;;;;;;-0.09;88.58;97969.71;106121;1318;22455;-58
2021/12/20 07:17:43;;;;;;;32.80;18.50;;;;;;;-0.11;88.22;97970.48;106016;1321;137679;-59
2021/12/20 07:20:12;;;;;;;21.40;11.70;;;;;;;-0.10;88.51;97973.39;105735;1319;22449;-59
2021/12/20 07:22:40;;;;;;;11.20;6.70;;;;;;;-0.10;88.49;97972.48;106029;1322;139741;-59
2021/12/20 07:25:08;;;;;;;9.10;5.40;;;;;;;-0.11;88.21;97972.55;106034;1321;22424;-59
2021/12/20 07:27:36;;;;;;;15.50;9.80;;;;;;;-0.12;88.28;97977.86;106069;1319;22589;-59
2021/12/20 07:30:06;;;;;;;19.40;11.30;;;;;;;-0.13;88.33;97978.34;105984;1320;137853;-59
2021/12/20 07:32:40;;;;;;;13.90;7.20;;;;;;;-0.11;88.54;97982.88;106153;1324;23274;-59
2021/12/20 07:35:08;;;;;;;8.50;5.10;;;;;;;-0.08;88.57;97985.48;105912;1322;137859;-59
2021/12/20 07:37:37;;;;;;;8.40;4.70;;;;;;;-0.07;88.59;97987.81;106111;1319;22537;-60
2021/12/20 07:40:07;;;;;;;8.80;5.80;;;;;;;-0.07;88.33;97993.17;106045;1318;23319;-59
2021/12/20 07:42:35;;;;;;;10.70;6.30;;;;;;;-0.07;88.03;97998.35;105834;1320;138413;-59
2021/12/20 07:45:03;;;;;;;8.80;5.00;;;;;;;-0.07;88.07;98001.04;106038;1325;22769;-59
2021/12/20 07:48:03;;;;;;;11.00;5.90;;;;;;;-0.09;87.80;98002.45;105972;1321;137654;-59
2021/12/20 07:50:31;;;;;;;8.80;4.80;;;;;;;-0.09;87.70;98007.80;106065;1321;22483;-59
2021/12/20 07:52:59;;;;;;;10.40;5.70;;;;;;;-0.11;87.69;98008.48;105933;1322;139893;-59
2021/12/20 07:55:27;;;;;;;8.10;4.50;;;;;;;-0.10;87.47;98014.56;106102;1324;23234;-58
2021/12/20 07:58:12;;;;;;;8.60;5.00;;;;;;;-0.08;87.31;98015.78;106052;1320;22662;-58
2021/12/20 08:00:40;;;;;;;7.80;4.60;;;;;;;-0.07;87.65;98017.54;106033;1323;138759;-58
2021/12/20 08:03:25;;;;;;;9.80;6.20;;;;;;;-0.06;87.09;98021.81;106162;1319;22588;-58
2021/12/20 08:05:53;;;;;;;12.40;6.60;;;;;;;-0.08;87.28;98025.05;103940;1319;139326;-58
2021/12/20 08:08:21;;;;;;;10.70;5.90;;;;;;;-0.09;87.10;98025.52;106107;1320;23190;-59
2021/12/20 08:11:08;;;;;;;11.20;5.60;;;;;;;-0.08;87.28;98022.29;106084;1320;138968;-60
2021/12/20 08:13:54;;;;;;;6.50;3.60;;;;;;;-0.06;87.27;98021.73;106164;1323;22587;-59
2021/12/20 08:16:21;;;;;;;6.20;3.20;;;;;;;-0.06;86.87;98025.56;106060;1324;138032;-60
2021/12/20 08:18:50;;;;;;;7.10;2.70;;;;;;;-0.05;86.87;98033.66;106142;1319;22488;-59
2021/12/20 08:21:17;;;;;;;4.50;2.90;;;;;;;-0.04;87.01;98026.77;106038;1321;22506;-59
2021/12/20 08:23:49;;;;;;;6.30;2.70;;;;;;;-0.02;86.91;98023.67;105966;1322;137917;-59
2021/12/20 08:26:17;;;;;;;10.10;3.00;;;;;;;-0.00;87.05;98026.71;106200;1324;22465;-60
2021/12/20 08:28:45;;;;;;;5.40;2.80;;;;;;;0.02;86.56;98025.90;105944;1320;139638;-59
2021/12/20 08:31:13;;;;;;;3.30;2.40;;;;;;;-0.01;86.09;98029.98;106172;1323;22524;-59
2021/12/20 08:33:41;;;;;;;5.90;3.40;;;;;;;0.00;86.36;98031.65;106170;1318;23295;-59
2021/12/20 08:36:12;;;;;;;4.20;2.50;;;;;;;0.02;86.35;98030.55;106051;1325;138642;-60
2021/12/20 08:38:45;;;;;;;5.10;3.30;;;;;;;0.02;85.86;98028.20;106148;1324;23185;-59
2021/12/20 08:41:13;;;;;;;6.50;4.10;;;;;;;-0.01;85.72;98032.16;102477;1324;139396;-57
2021/12/20 08:43:59;;;;;;;7.40;4.00;;;;;;;-0.03;85.91;98034.80;101998;1318;25359;-55
2021/12/20 08:46:27;;;;;;;6.80;4.00;;;;;;;-0.02;86.20;98036.68;106002;1321;138245;-58
2021/12/20 08:48:56;;;;;;;6.20;3.70;;;;;;;-0.03;85.85;98037.63;104933;1325;23044;-57
2021/12/20 08:51:25;;;;;;;5.30;3.30;;;;;;;-0.02;85.96;98032.14;106094;1322;22397;-58
2021/12/20 08:53:53;;;;;;;5.40;3.20;;;;;;;-0.01;86.04;98033.83;105808;1326;138397;-57
2021/12/20 08:56:36;;;;;;;6.40;2.80;;;;;;;-0.01;85.90;98040.95;106004;1323;22454;-57
2021/12/20 08:59:05;;;;;;;9.10;4.00;;;;;;;-0.02;85.69;98038.40;104270;1324;139420;-56
2021/12/20 09:01:33;;;;;;;7.50;3.80;;;;;;;-0.01;85.89;98040.41;106031;1324;22448;-57
2021/12/20 09:04:03;;;;;;;6.40;3.70;;;;;;;0.01;86.16;98039.76;105807;1320;22495;-57
2021/12/20 09:06:34;;;;;;;8.30;3.40;;;;;;;0.02;85.90;98040.77;105939;1323;140426;-57
2021/12/20 09:09:20;;;;;;;4.60;3.10;;;;;;;0.02;85.68;98042.34;106059;1318;23227;-58
2021/12/20 09:11:48;;;;;;;6.10;3.00;;;;;;;-0.00;85.67;98041.92;106000;1319;137955;-58
2021/12/20 09:14:16;;;;;;;4.90;3.10;;;;;;;-0.01;85.41;98040.29;105992;1319;23489;-58
2021/12/20 09:16:44;;;;;;;6.70;3.80;;;;;;;-0.03;85.74;98043.48;106104;1320;139237;-60
2021/12/20 09:19:13;;;;;;;6.90;3.50;;;;;;;-0.02;85.58;98044.14;105355;1325;22486;-59
2021/12/20 09:21:41;;;;;;;9.50;4.80;;;;;;;0.00;85.59;98042.36;106136;1318;22463;-59
2021/12/20 09:24:15;;;;;;;8.60;4.40;;;;;;;0.02;85.79;98042.08;106009;1318;137609;-58
2021/12/20 09:26:44;;;;;;;6.80;4.10;;;;;;;0.04;85.38;98034.48;106097;1318;22467;-59
2021/12/20 09:29:11;;;;;;;6.10;3.80;;;;;;;0.05;85.61;98038.27;105953;1324;137764;-58
2021/12/20 09:31:39;;;;;;;7.30;3.40;;;;;;;0.06;85.37;98032.07;105978;1321;22233;-58
2021/12/20 09:34:07;;;;;;;7.60;4.20;;;;;;;0.08;85.25;98034.92;105982;1324;22658;-58
2021/12/20 09:36:35;;;;;;;5.50;3.40;;;;;;;0.11;85.52;98033.29;106051;1319;138321;-59
2021/12/20 09:39:07;;;;;;;6.40;4.00;;;;;;;0.14;85.25;98031.96;106154;1324;23221;-58
2021/12/20 09:44:03;;;;;;;7.00;3.60;;;;;;;0.26;85.55;98032.13;105821;1323;22527;-58
2021/12/20 09:46:32;;;;;;;6.10;3.80;;;;;;;0.31;85.46;98036.73;103786;1320;139821;-57
2021/12/20 09:49:00;;;;;;;5.90;3.40;;;;;;;0.32;84.99;98037.00;102049;1319;25371;-57
2021/12/20 09:51:28;;;;;;;6.80;4.20;;;;;;;0.37;84.97;98033.56;101756;1324;24299;-58
2021/12/20 09:53:56;;;;;;;7.50;3.70;;;;;;;0.42;85.17;98034.40;101657;1319;137681;-59
2021/12/20 09:56:28;;;;;;;6.90;3.70;;;;;;;0.48;85.15;98034.34;101722;1320;25481;-59
2021/12/20 09:58:57;;;;;;;7.50;3.70;;;;;;;0.55;84.77;98030.49;105938;1320;137880;-58
2021/12/20 10:01:26;;;;;;;6.30;3.90;;;;;;;0.61;84.71;98035.61;106137;1319;22562;-58
2021/12/20 10:03:55;;;;;;;6.90;3.50;;;;;;;0.66;84.42;98033.84;106082;1322;23317;-58
2021/12/20 10:06:23;;;;;;;7.70;3.40;;;;;;;0.68;83.56;98032.34;105848;1321;137588;-59
2021/12/20 10:08:53;;;;;;;4.50;3.40;;;;;;;0.67;83.27;98031.23;106019;1321;22470;-59
2021/12/20 10:11:41;;;;;;;6.60;3.30;;;;;;;0.67;83.01;98039.69;105892;1326;138915;-59
2021/12/20 10:14:13;;;;;;;7.90;3.10;;;;;;;0.67;82.89;98037.05;106022;1319;22557;-59
2021/12/20 10:16:43;;;;;;;5.40;2.90;;;;;;;0.69;82.80;98039.05;105694;1321;139502;-59
2021/12/20 10:19:28;;;;;;;5.00;2.70;;;;;;;0.68;82.50;98042.52;105904;1321;22515;-58
2021/12/20 10:21:58;;;;;;;5.90;3.20;;;;;;;0.67;82.37;98038.98;105982;1321;23427;-59
2021/12/20 10:24:34;;;;;;;5.30;3.00;;;;;;;0.65;82.24;98039.48;105974;1319;139026;-59
2021/12/20 10:27:03;;;;;;;6.20;4.00;;;;;;;0.63;82.04;98047.45;106079;1318;22557;-59
2021/12/20 10:29:30;;;;;;;8.10;4.00;;;;;;;0.61;82.02;98048.10;105857;1319;141238;-58
2021/12/20 10:31:59;;;;;;;8.30;4.50;;;;;;;0.61;81.67;98044.80;105966;1321;22674;-58
2021/12/20 10:34:31;;;;;;;7.70;4.60;;;;;;;0.63;81.81;98044.20;105850;1319;138914;-59
2021/12/20 10:37:01;;;;;;;8.70;4.50;;;;;;;0.64;81.66;98039.77;105811;1319;22465;-59
2021/12/20 10:39:48;;;;;;;7.20;3.80;;;;;;;0.68;82.03;98045.29;105914;1320;23286;-59
2021/12/20 10:42:24;;;;;;;5.40;2.90;;;;;;;0.74;82.11;98042.74;105922;1319;138481;-59
2021/12/20 10:45:14;;;;;;;6.70;3.60;;;;;;;0.81;82.08;98041.15;105937;1320;22555;-59
2021/12/20 10:47:42;;;;;;;4.70;2.60;;;;;;;0.88;81.82;98037.57;105817;1323;138724;-59
2021/12/20 10:50:24;;;;;;;6.50;2.90;;;;;;;0.94;81.40;98037.05;105856;1321;22491;-59
2021/12/20 10:52:53;;;;;;;4.60;2.80;;;;;;;0.95;81.08;98033.94;105880;1321;139484;-59
2021/12/20 10:55:41;;;;;;;6.40;2.90;;;;;;;0.98;80.48;98035.02;105921;1321;22447;-58
2021/12/20 10:58:29;;;;;;;7.00;3.20;;;;;;;0.98;80.16;98038.77;105693;1321;23621;-59
2021/12/20 11:01:14;;;;;;;4.20;2.80;;;;;;;1.00;80.14;98038.35;105505;1318;138811;-59
2021/12/20 11:03:44;;;;;;;5.50;2.80;;;;;;;1.02;80.10;98039.12;105870;1321;22468;-59
2021/12/20 11:11:29;;;;;;;10.50;5.10;;;;;;;1.14;79.86;98041.83;105869;1318;138568;-59
2021/12/20 11:13:58;;;;;;;5.50;3.00;;;;;;;1.17;79.46;98041.45;105984;1325;22555;-58
2021/12/20 11:16:33;;;;;;;3.70;2.40;;;;;;;1.19;79.15;98042.34;106125;1318;22560;-59
2021/12/20 11:19:08;;;;;;;6.10;2.90;;;;;;;1.18;79.00;98043.06;106065;1320;137360;-59
2021/12/20 11:21:45;;;;;;;4.50;2.00;;;;;;;1.16;79.03;98049.19;106087;1319;22467;-59
2021/12/20 11:24:18;;;;;;;4.10;2.40;;;;;;;1.16;78.74;98047.92;105948;1318;137683;-59
2021/12/20 11:26:45;;;;;;;5.30;3.00;;;;;;;1.14;78.15;98050.45;106021;1319;22480;-59
2021/12/20 11:29:13;;;;;;;5.70;3.10;;;;;;;1.12;78.66;98054.65;105929;1319;138040;-59
2021/12/20 11:31:41;;;;;;;6.80;3.20;;;;;;;1.13;78.94;98055.38;106149;1319;22550;-60
2021/12/20 11:34:09;;;;;;;5.70;2.90;;;;;;;1.15;78.96;98057.08;106091;1322;22463;-59
2021/12/20 11:36:37;;;;;;;6.00;3.40;;;;;;;1.16;78.89;98056.98;105686;1318;138166;-60
2021/12/20 11:39:06;;;;;;;5.20;3.10;;;;;;;1.17;78.79;98056.52;105818;1321;23050;-60
2021/12/20 11:41:33;;;;;;;6.70;3.60;;;;;;;1.17;78.75;98054.59;105805;1318;138708;-60
2021/12/20 11:44:04;;;;;;;11.20;5.70;;;;;;;1.18;78.98;98056.34;104488;1320;23340;-58
2021/12/20 11:46:41;;;;;;;6.40;3.70;;;;;;;1.20;78.94;98055.10;105430;1318;22476;-59
2021/12/20 11:49:09;;;;;;;6.60;3.50;;;;;;;1.22;79.06;98060.23;105648;1318;138808;-58
2021/12/20 11:52:00;;;;;;;5.80;3.30;;;;;;;1.20;79.04;98060.73;105773;1318;24381;-59
2021/12/20 11:54:42;;;;;;;10.50;4.10;;;;;;;1.18;79.18;98069.14;105173;1321;264179;-59
2021/12/20 11:57:30;;;;;;;6.50;3.50;;;;;;;1.15;79.35;98065.61;105801;1318;22391;-58
2021/12/20 11:59:59;;;;;;;;;;;;;;;1.12;78.85;98070.09;105083;1322;137780;-59
2021/12/20 12:02:30;;;;;;;4.30;2.30;;;;;;;1.10;79.04;98070.69;106074;1322;22313;-59